createdAt,value
2022-12-01T00:03:23.687Z,57.00
2022-12-01T00:08:23.541Z,57.20
2022-12-01T00:13:23.391Z,62.10
2022-12-01T00:18:23.379Z,71.50
2022-12-01T00:23:23.690Z,68.20
2022-12-01T00:28:23.495Z,64.80
2022-12-01T00:33:23.483Z,61.70
2022-12-01T00:38:25.192Z,56.70
2022-12-01T00:43:25.257Z,55.50
2022-12-01T00:48:23.049Z,61.40
2022-12-01T00:53:23.005Z,52.50
2022-12-01T00:58:22.915Z,57.40
2022-12-01T01:03:22.902Z,59.40
2022-12-01T01:08:22.864Z,59.80
2022-12-01T01:13:22.790Z,63.40
2022-12-01T01:18:22.728Z,59.30
2022-12-01T01:23:22.676Z,63.80
2022-12-01T01:28:22.581Z,73.40
2022-12-01T01:33:22.541Z,77.70
2022-12-01T01:38:22.480Z,63.80
2022-12-01T01:43:22.511Z,78.20
2022-12-01T01:48:22.394Z,78.20
2022-12-01T01:53:22.362Z,66.20
2022-12-01T01:58:22.375Z,79.90
2022-12-01T02:03:22.257Z,77.60
2022-12-01T02:08:22.202Z,69.70
2022-12-01T02:13:22.103Z,70.90
2022-12-01T02:18:22.101Z,59.00
2022-12-01T02:23:21.991Z,62.10
2022-12-01T02:28:21.961Z,51.40
2022-12-01T02:33:21.918Z,54.90
2022-12-01T02:38:21.876Z,58.70
2022-12-01T02:43:21.781Z,59.30
2022-12-01T02:48:21.758Z,58.30
2022-12-01T02:53:22.872Z,63.60
2022-12-01T02:58:21.703Z,63.20
2022-12-01T03:03:21.864Z,52.20
2022-12-01T03:08:21.641Z,54.10
2022-12-01T03:13:21.514Z,48.50
2022-12-01T03:18:21.439Z,48.20
2022-12-01T03:23:21.397Z,49.60
2022-12-01T03:28:22.436Z,48.80
2022-12-01T03:33:21.408Z,48.10
2022-12-01T03:38:21.214Z,48.40
2022-12-01T03:43:21.198Z,47.50
2022-12-01T03:48:21.118Z,51.00
2022-12-01T03:53:21.141Z,49.00
2022-12-01T03:58:21.044Z,45.20
2022-12-01T04:03:20.960Z,46.00
2022-12-01T04:08:20.920Z,44.50
2022-12-01T04:13:20.870Z,43.50
2022-12-01T04:18:21.037Z,46.00
2022-12-01T04:23:21.884Z,44.30
2022-12-01T04:28:20.677Z,49.10
2022-12-01T04:33:20.682Z,53.70
2022-12-01T04:38:20.626Z,47.00
2022-12-01T04:43:20.491Z,48.50
2022-12-01T04:48:20.467Z,51.80
2022-12-01T04:53:20.385Z,48.90
2022-12-01T04:58:20.409Z,52.80
2022-12-01T05:03:20.482Z,45.30
2022-12-01T05:08:20.405Z,42.90
2022-12-01T05:13:20.430Z,43.50
2022-12-01T05:18:20.207Z,39.10
2022-12-01T05:23:20.231Z,36.90
2022-12-01T05:28:20.046Z,34.10
2022-12-01T05:33:19.994Z,32.80
2022-12-01T05:38:19.921Z,33.90
2022-12-01T05:43:23.886Z,33.30
2022-12-01T05:48:20.839Z,33.30
2022-12-01T05:53:19.747Z,33.80
2022-12-01T05:58:19.678Z,39.30
2022-12-01T06:03:19.668Z,40.80
2022-12-01T06:08:19.683Z,39.20
2022-12-01T06:13:19.562Z,35.30
2022-12-01T06:18:19.634Z,38.90
2022-12-01T06:23:19.428Z,35.20
2022-12-01T06:28:19.400Z,35.20
2022-12-01T06:33:22.864Z,35.50
2022-12-01T06:38:19.415Z,33.30
2022-12-01T06:43:19.255Z,31.40
2022-12-01T06:48:19.142Z,32.10
2022-12-01T06:53:19.228Z,29.80
2022-12-01T06:58:19.095Z,29.10
2022-12-01T07:03:19.013Z,29.90
2022-12-01T07:08:18.974Z,32.30
2022-12-01T07:13:20.007Z,32.80
2022-12-01T07:18:18.799Z,38.70
2022-12-01T07:23:18.934Z,36.50
2022-12-01T07:28:18.725Z,38.20
2022-12-01T07:33:18.761Z,36.80
2022-12-01T07:38:22.130Z,39.30
2022-12-01T07:43:18.606Z,42.20
2022-12-01T07:48:18.690Z,49.70
2022-12-01T07:53:18.613Z,50.50
2022-12-01T07:58:18.506Z,50.10
2022-12-01T08:03:18.366Z,55.60
2022-12-01T08:08:18.512Z,53.80
2022-12-01T08:13:18.225Z,50.50
2022-12-01T08:18:18.364Z,51.70
2022-12-01T08:23:18.269Z,54.90
2022-12-01T08:28:18.056Z,49.00
2022-12-01T08:33:17.998Z,46.40
2022-12-01T08:38:17.954Z,45.30
2022-12-01T08:43:41.463Z,36.10
2022-12-01T08:48:18.968Z,31.20
2022-12-01T08:53:17.799Z,32.50
2022-12-01T08:58:17.785Z,32.40
2022-12-01T09:03:17.908Z,34.90
2022-12-01T09:08:17.737Z,33.30
2022-12-01T09:13:17.721Z,32.00
2022-12-01T09:18:17.512Z,33.50
2022-12-01T09:23:17.647Z,32.30
2022-12-01T09:28:17.480Z,32.60
2022-12-01T09:33:17.382Z,35.50
2022-12-01T09:38:17.335Z,38.00
2022-12-01T09:43:17.284Z,41.50
2022-12-01T09:48:17.284Z,45.70
2022-12-01T09:53:17.252Z,43.10
2022-12-01T09:58:17.206Z,46.70
2022-12-01T10:03:17.108Z,47.00
2022-12-01T10:08:17.106Z,45.50
2022-12-01T10:13:16.929Z,45.80
2022-12-01T10:18:16.868Z,43.50
2022-12-01T10:23:16.874Z,40.50
2022-12-01T10:28:16.925Z,37.20
2022-12-01T10:33:16.863Z,36.10
2022-12-01T10:38:16.691Z,35.80
2022-12-01T10:43:16.745Z,34.90
2022-12-01T10:48:16.673Z,47.10
2022-12-01T10:53:16.550Z,38.40
2022-12-01T10:58:16.459Z,37.50
2022-12-01T11:03:21.312Z,36.70
2022-12-01T11:08:17.352Z,36.00
2022-12-01T11:13:16.214Z,37.30
2022-12-01T11:18:18.288Z,36.40
2022-12-01T11:23:16.162Z,38.00
2022-12-01T11:28:16.193Z,38.70
2022-12-01T11:33:16.132Z,40.20
2022-12-01T11:38:31.295Z,42.10
2022-12-01T11:43:16.936Z,44.80
2022-12-01T11:48:15.872Z,46.20
2022-12-01T11:53:15.847Z,47.00
2022-12-01T11:58:15.982Z,48.80
2022-12-01T12:03:15.920Z,48.20
2022-12-01T12:08:15.839Z,48.70
2022-12-01T12:13:16.764Z,54.50
2022-12-01T12:18:15.703Z,51.60
2022-12-01T12:23:15.532Z,49.90
2022-12-01T12:28:15.516Z,50.50
2022-12-01T12:33:15.362Z,50.80
2022-12-01T12:38:15.358Z,51.30
2022-12-01T12:43:15.246Z,52.00
2022-12-01T12:48:15.196Z,54.00
2022-12-01T12:53:15.168Z,56.50
2022-12-01T12:58:15.231Z,57.60
2022-12-01T13:03:15.165Z,56.60
2022-12-01T13:08:15.076Z,54.60
2022-12-01T13:13:15.042Z,56.00
2022-12-01T13:18:14.870Z,55.20
2022-12-01T13:23:15.904Z,54.90
2022-12-01T13:28:14.741Z,51.60
2022-12-01T13:33:14.697Z,52.90
2022-12-01T13:38:14.682Z,50.00
2022-12-01T13:43:14.608Z,50.00
2022-12-01T13:48:14.572Z,49.40
2022-12-01T13:53:14.527Z,54.70
2022-12-01T13:58:14.408Z,55.80
2022-12-01T14:03:14.568Z,61.00
2022-12-01T14:08:18.336Z,56.50
2022-12-01T14:13:15.346Z,54.10
2022-12-01T14:18:14.187Z,54.90
2022-12-01T14:23:14.155Z,56.20
2022-12-01T14:28:14.084Z,52.90
2022-12-01T14:33:14.047Z,56.90
2022-12-01T14:38:13.983Z,55.30
2022-12-01T14:43:13.934Z,56.30
2022-12-01T14:48:13.953Z,54.30
2022-12-01T14:53:13.803Z,52.20
2022-12-01T14:58:13.773Z,54.30
2022-12-01T15:03:13.761Z,51.50
2022-12-01T15:08:40.428Z,50.90
2022-12-01T15:13:14.704Z,54.10
2022-12-01T15:18:13.676Z,54.00
2022-12-01T15:23:13.523Z,54.30
2022-12-01T15:28:13.475Z,54.70
2022-12-01T15:33:13.406Z,57.30
2022-12-01T15:38:13.343Z,56.40
2022-12-01T15:43:13.442Z,58.90
2022-12-01T15:48:13.243Z,57.80
2022-12-01T15:53:13.321Z,54.30
2022-12-01T15:58:14.262Z,53.80
2022-12-01T16:03:13.183Z,55.20
2022-12-01T16:08:14.012Z,54.50
2022-12-01T16:13:12.983Z,57.90
2022-12-01T16:18:12.871Z,52.40
2022-12-01T16:23:12.820Z,52.30
2022-12-01T16:28:12.794Z,63.30
2022-12-01T16:33:12.834Z,63.30
2022-12-01T16:38:12.783Z,53.60
2022-12-01T16:43:12.755Z,52.20
2022-12-01T16:48:12.763Z,54.70
2022-12-01T16:53:12.505Z,54.30
2022-12-01T16:58:12.455Z,58.00
2022-12-01T17:03:12.395Z,56.00
2022-12-01T17:08:12.454Z,54.70
2022-12-01T17:13:12.281Z,57.80
2022-12-01T17:18:12.363Z,56.10
2022-12-01T17:23:12.172Z,59.40
2022-12-01T17:28:12.149Z,54.80
2022-12-01T17:33:12.197Z,53.70
2022-12-01T17:38:12.120Z,53.80
2022-12-01T17:43:11.966Z,56.40
2022-12-01T17:48:20.798Z,54.30
2022-12-01T17:53:11.889Z,57.60
2022-12-01T17:58:11.789Z,51.20
2022-12-01T18:03:11.788Z,49.00
2022-12-01T18:08:11.798Z,46.50
2022-12-01T18:13:11.638Z,45.10
2022-12-01T18:18:11.610Z,43.80
2022-12-01T18:23:11.553Z,47.40
2022-12-01T18:28:11.499Z,48.30
2022-12-01T18:33:11.480Z,46.60
2022-12-01T18:38:11.413Z,47.20
2022-12-01T18:43:11.290Z,46.20
2022-12-01T18:48:11.319Z,48.10
2022-12-01T18:53:11.185Z,43.20
2022-12-01T18:58:11.182Z,42.10
2022-12-01T19:03:11.210Z,41.20
2022-12-01T19:08:11.197Z,38.60
2022-12-01T19:13:11.010Z,38.80
2022-12-01T19:18:10.929Z,36.10
2022-12-01T19:23:10.951Z,38.10
2022-12-01T19:28:10.833Z,35.20
2022-12-01T19:33:10.788Z,37.20
2022-12-01T19:38:10.708Z,32.60
2022-12-01T19:43:10.764Z,35.40
2022-12-01T19:48:10.678Z,30.40
2022-12-01T19:53:10.637Z,29.50
2022-12-01T19:58:10.539Z,28.20
2022-12-01T20:03:10.497Z,30.60
2022-12-01T20:08:10.467Z,28.10
2022-12-01T20:13:10.322Z,25.60
2022-12-01T20:18:10.280Z,26.40
2022-12-01T20:23:10.341Z,22.00
2022-12-01T20:28:10.170Z,24.00
2022-12-01T20:33:10.180Z,25.10
2022-12-01T20:38:10.114Z,23.40
2022-12-01T20:43:10.003Z,24.60
2022-12-01T20:48:09.978Z,27.70
2022-12-01T20:53:09.925Z,27.90
2022-12-01T20:58:10.898Z,29.90
2022-12-01T21:03:09.814Z,30.10
2022-12-01T21:08:09.865Z,30.30
2022-12-01T21:13:09.749Z,31.30
2022-12-01T21:18:09.623Z,29.80
2022-12-01T21:23:09.582Z,30.00
2022-12-01T21:28:09.501Z,29.90
2022-12-01T21:33:09.452Z,27.50
2022-12-01T21:38:10.401Z,31.70
2022-12-01T21:43:09.378Z,30.10
2022-12-01T21:48:09.280Z,30.40
2022-12-01T21:53:09.298Z,31.10
2022-12-01T21:58:09.156Z,29.50
2022-12-01T22:03:09.131Z,28.80
2022-12-01T22:08:09.184Z,32.10
2022-12-01T22:13:09.076Z,29.40
2022-12-01T22:18:10.995Z,35.10
2022-12-01T22:23:08.918Z,35.00
2022-12-01T22:28:08.852Z,35.10
2022-12-01T22:33:08.800Z,33.70
2022-12-01T22:38:08.745Z,33.40
2022-12-01T22:43:13.810Z,37.40
2022-12-01T22:48:09.695Z,34.30
2022-12-01T22:53:08.541Z,32.80
2022-12-01T22:58:08.627Z,34.00
2022-12-01T23:03:08.554Z,35.90
2022-12-01T23:08:08.586Z,37.60
2022-12-01T23:13:08.360Z,37.40
2022-12-01T23:18:08.311Z,34.40
2022-12-01T23:23:08.257Z,38.90
2022-12-01T23:28:08.204Z,34.10
2022-12-01T23:33:08.180Z,38.70
2022-12-01T23:38:08.173Z,34.40
2022-12-01T23:43:08.087Z,36.30
2022-12-01T23:48:11.084Z,38.60
2022-12-01T23:53:17.948Z,39.70
2022-12-01T23:58:08.094Z,42.30
